NORTHEAST SUFFOLK  -  Rip Current Statement Rip Current Statement        NORTHERN NASSAU  -  Rip Current Statement Rip Current Statement        NORTHERN QUEENS  -  Rip Current Statement Rip Current Statement     Air Quality Alert Air Quality Alert        NORTHWEST SUFFOLK  -  Rip Current Statement Rip Current Statement        SOUTHEAST SUFFOLK  -  Rip Current Statement Rip Current Statement        SOUTHERN NASSAU  -  Rip Current Statement Rip Current Statement        SOUTHERN QUEENS  -  Rip Current Statement Rip Current Statement     Air Quality Alert Air Quality Alert        SOUTHWEST SUFFOLK  -  Rip Current Statement Rip Current Statement      

Active alerts

Northern Queens
  Details for Northern Queens Rip Current Statement  +1 additional alert
Southern Queens
  Details for Southern Queens Rip Current Statement  +1 additional alert
Northern Nassau
  Details for Northern Nassau Rip Current Statement
Southern Nassau
  Details for Southern Nassau Rip Current Statement
Northwest Suffolk
  Details for Northwest Suffolk Rip Current Statement
Southwest Suffolk
  Details for Southwest Suffolk Rip Current Statement
Northeast Suffolk
  Details for Northeast Suffolk Rip Current Statement
Southeast Suffolk
  Details for Southeast Suffolk Rip Current Statement


WXM80 ListenWXM80 Stop

You find our weather info also at:

UK Metoffice

WeatherCloud

Weather Underground

Northeastern Weather Network

AWEKAS

Citizen Weather Observer Program (CWOP)

HAMweather, WeatherForYou, PWS Weather


Weather Underground History page Text

Daily Summary for March 28, 2017 Units:  Both    English   Metric
« Previous Day
Next Day »
Daily Weekly Monthly Yearly Custom
  High: Low: Average:
Temperature: 41.6 °F /  5.3 °C 39.3 °F /  4.1 °C 40.2 °F /  4.6 °C
Dew Point: 41.1 °F /  5.1 °C 38.8 °F /  3.8 °C 39.7 °F /  4.3 °C
Humidity: 98 % 98 % 98 %
Wind Speed: 11.0 mph /  17.7 km/h - 4.4 mph /  7.1 km/h
Wind Gust: 17.3 mph /  27.8 km/h - -
Wind:- - ENE
Pressure: 29.99 in /  1015.5 hPa 29.85 in /  1010.7 hPa -
Precipitation: 0.00 in /  0 mm    
Historical Graphs
 
 
Tabular Data for March 28, 2017
Time Temperature Dew Point Pressure Wind Wind Speed Wind Gust Humidity Rainfall Rate (Hourly)
00:02 41.0 °F /  5 °C 40.5 °F /  4.7 °C 29.99 in /  1015.5 hPa East 5.4 mph /  8.7 km/h 6.0 mph /  9.7 km/h 98 % 0.00 in /  0 mm
00:07 41.1 °F /  5.1 °C 40.6 °F /  4.8 °C 29.99 in /  1015.5 hPa East 5.8 mph /  9.3 km/h 6.9 mph /  11.1 km/h 98 % 0.00 in /  0 mm
00:12 41.1 °F /  5.1 °C 40.6 °F /  4.8 °C 29.99 in /  1015.5 hPa East 4.5 mph /  7.2 km/h 5.8 mph /  9.3 km/h 98 % 0.00 in /  0 mm
00:17 41.1 °F /  5.1 °C 40.6 °F /  4.8 °C 29.99 in /  1015.5 hPa East 4.0 mph /  6.4 km/h 6.9 mph /  11.1 km/h 98 % 0.00 in /  0 mm
00:22 41.1 °F /  5.1 °C 40.6 °F /  4.8 °C 29.99 in /  1015.5 hPa East 4.4 mph /  7.1 km/h 5.8 mph /  9.3 km/h 98 % 0.00 in /  0 mm
00:27 41.1 °F /  5.1 °C 40.6 °F /  4.8 °C 29.99 in /  1015.5 hPa East 2.0 mph /  3.2 km/h 6.0 mph /  9.7 km/h 98 % 0.00 in /  0 mm
00:32 41.2 °F /  5.1 °C 40.7 °F /  4.8 °C 29.99 in /  1015.5 hPa East 3.0 mph /  4.8 km/h 5.0 mph /  8 km/h 98 % 0.00 in /  0 mm
00:37 41.2 °F /  5.1 °C 40.7 °F /  4.8 °C 29.99 in /  1015.5 hPa East 1.0 mph /  1.6 km/h 3.0 mph /  4.8 km/h 98 % 0.00 in /  0 mm
00:42 41.3 °F /  5.2 °C 40.8 °F /  4.9 °C 29.98 in /  1015.1 hPa East 2.0 mph /  3.2 km/h 5.0 mph /  8 km/h 98 % 0.00 in /  0 mm
00:47 41.4 °F /  5.2 °C 40.9 °F /  4.9 °C 29.98 in /  1015.1 hPa East 2.0 mph /  3.2 km/h 5.0 mph /  8 km/h 98 % 0.00 in /  0 mm
00:52 41.5 °F /  5.3 °C 41.0 °F /  5 °C 29.98 in /  1015.1 hPa East 2.0 mph /  3.2 km/h 5.0 mph /  8 km/h 98 % 0.00 in /  0 mm
00:57 41.5 °F /  5.3 °C 41.0 °F /  5 °C 29.98 in /  1015.1 hPa East 2.7 mph /  4.3 km/h 5.0 mph /  8 km/h 98 % 0.00 in /  0 mm
01:02 41.6 °F /  5.3 °C 41.1 °F /  5.1 °C 29.98 in /  1015.1 hPa East 3.0 mph /  4.8 km/h 4.6 mph /  7.4 km/h 98 % 0.00 in /  0 mm
01:07 41.6 °F /  5.3 °C 41.1 °F /  5.1 °C 29.98 in /  1015.1 hPa East 2.0 mph /  3.2 km/h 5.0 mph /  8 km/h 98 % 0.00 in /  0 mm
01:12 41.6 °F /  5.3 °C 41.1 °F /  5.1 °C 29.98 in /  1015.1 hPa East 2.1 mph /  3.4 km/h 3.5 mph /  5.6 km/h 98 % 0.00 in /  0 mm
01:17 41.6 °F /  5.3 °C 41.1 °F /  5.1 °C 29.97 in /  1014.8 hPa ENE 2.5 mph /  4 km/h 3.5 mph /  5.6 km/h 98 % 0.00 in /  0 mm
01:22 41.6 °F /  5.3 °C 41.1 °F /  5.1 °C 29.97 in /  1014.8 hPa ENE 2.9 mph /  4.7 km/h 3.5 mph /  5.6 km/h 98 % 0.00 in /  0 mm
01:27 41.5 °F /  5.3 °C 41.0 °F /  5 °C 29.97 in /  1014.8 hPa ENE 2.0 mph /  3.2 km/h 4.0 mph /  6.4 km/h 98 % 0.00 in /  0 mm
01:32 41.5 °F /  5.3 °C 41.0 °F /  5 °C 29.97 in /  1014.8 hPa ENE 2.1 mph /  3.4 km/h 3.5 mph /  5.6 km/h 98 % 0.00 in /  0 mm
01:37 41.4 °F /  5.2 °C 40.9 °F /  4.9 °C 29.96 in /  1014.4 hPa ENE 2.0 mph /  3.2 km/h 4.0 mph /  6.4 km/h 98 % 0.00 in /  0 mm
01:42 41.5 °F /  5.3 °C 41.0 °F /  5 °C 29.96 in /  1014.4 hPa ENE 2.0 mph /  3.2 km/h 4.0 mph /  6.4 km/h 98 % 0.00 in /  0 mm
01:47 41.5 °F /  5.3 °C 41.0 °F /  5 °C 29.96 in /  1014.4 hPa ENE 3.0 mph /  4.8 km/h 4.0 mph /  6.4 km/h 98 % 0.00 in /  0 mm
01:52 41.4 °F /  5.2 °C 40.9 °F /  4.9 °C 29.96 in /  1014.4 hPa ENE 3.0 mph /  4.8 km/h 5.0 mph /  8 km/h 98 % 0.00 in /  0 mm
01:57 41.4 °F /  5.2 °C 40.9 °F /  4.9 °C 29.96 in /  1014.4 hPa ENE 2.5 mph /  4 km/h 3.5 mph /  5.6 km/h 98 % 0.00 in /  0 mm
02:02 41.4 °F /  5.2 °C 40.9 °F /  4.9 °C 29.96 in /  1014.4 hPa East 3.0 mph /  4.8 km/h 6.0 mph /  9.7 km/h 98 % 0.00 in /  0 mm
02:07 41.4 °F /  5.2 °C 40.9 °F /  4.9 °C 29.96 in /  1014.4 hPa East 3.0 mph /  4.8 km/h 6.0 mph /  9.7 km/h 98 % 0.00 in /  0 mm
02:12 41.4 °F /  5.2 °C 40.9 °F /  4.9 °C 29.95 in /  1014.1 hPa ENE 3.0 mph /  4.8 km/h 6.0 mph /  9.7 km/h 98 % 0.00 in /  0 mm
02:17 41.5 °F /  5.3 °C 41.0 °F /  5 °C 29.95 in /  1014.1 hPa ENE 3.0 mph /  4.8 km/h 6.0 mph /  9.7 km/h 98 % 0.00 in /  0 mm
02:22 41.5 °F /  5.3 °C 41.0 °F /  5 °C 29.95 in /  1014.1 hPa ENE 2.0 mph /  3.2 km/h 6.0 mph /  9.7 km/h 98 % 0.00 in /  0 mm
02:27 41.4 °F /  5.2 °C 40.9 °F /  4.9 °C 29.95 in /  1014.1 hPa ENE 2.0 mph /  3.2 km/h 3.0 mph /  4.8 km/h 98 % 0.00 in /  0 mm
02:32 41.4 °F /  5.2 °C 40.9 °F /  4.9 °C 29.95 in /  1014.1 hPa ENE 2.0 mph /  3.2 km/h 4.0 mph /  6.4 km/h 98 % 0.00 in /  0 mm
02:37 41.3 °F /  5.2 °C 40.8 °F /  4.9 °C 29.95 in /  1014.1 hPa ENE 2.0 mph /  3.2 km/h 4.0 mph /  6.4 km/h 98 % 0.00 in /  0 mm
02:42 41.2 °F /  5.1 °C 40.7 °F /  4.8 °C 29.94 in /  1013.8 hPa ENE 3.0 mph /  4.8 km/h 5.0 mph /  8 km/h 98 % 0.00 in /  0 mm
02:47 41.2 °F /  5.1 °C 40.7 °F /  4.8 °C 29.94 in /  1013.8 hPa ENE 3.0 mph /  4.8 km/h 5.0 mph /  8 km/h 98 % 0.00 in /  0 mm
02:52 41.1 °F /  5.1 °C 40.6 °F /  4.8 °C 29.93 in /  1013.4 hPa East 5.0 mph /  8 km/h 7.0 mph /  11.3 km/h 98 % 0.00 in /  0 mm
02:57 41.1 °F /  5.1 °C 40.6 °F /  4.8 °C 29.93 in /  1013.4 hPa ENE 4.9 mph /  7.9 km/h 7.0 mph /  11.3 km/h 98 % 0.00 in /  0 mm
03:02 41.0 °F /  5 °C 40.5 °F /  4.7 °C 29.93 in /  1013.4 hPa East 5.7 mph /  9.2 km/h 7.0 mph /  11.3 km/h 98 % 0.00 in /  0 mm
03:07 40.9 °F /  4.9 °C 40.4 °F /  4.7 °C 29.93 in /  1013.4 hPa ENE 4.8 mph /  7.7 km/h 6.9 mph /  11.1 km/h 98 % 0.00 in /  0 mm
03:12 40.8 °F /  4.9 °C 40.3 °F /  4.6 °C 29.94 in /  1013.8 hPa ENE 4.1 mph /  6.6 km/h 6.9 mph /  11.1 km/h 98 % 0.00 in /  0 mm
03:17 40.6 °F /  4.8 °C 40.1 °F /  4.5 °C 29.93 in /  1013.4 hPa NE 5.9 mph /  9.5 km/h 8.0 mph /  12.9 km/h 98 % 0.00 in /  0 mm
03:22 40.5 °F /  4.7 °C 40.0 °F /  4.4 °C 29.93 in /  1013.4 hPa ENE 4.5 mph /  7.2 km/h 6.9 mph /  11.1 km/h 98 % 0.00 in /  0 mm
03:27 40.4 °F /  4.7 °C 39.9 °F /  4.4 °C 29.94 in /  1013.8 hPa ENE 4.6 mph /  7.4 km/h 8.1 mph /  13 km/h 98 % 0.00 in /  0 mm
03:30 40.3 °F /  4.6 °C 39.8 °F /  4.3 °C 29.93 in /  1013.4 hPa ENE 4.3 mph /  6.9 km/h 6.0 mph /  9.7 km/h 98 % 0.00 in /  0 mm
03:35 40.2 °F /  4.6 °C 39.7 °F /  4.3 °C 29.93 in /  1013.4 hPa East 5.5 mph /  8.9 km/h 6.0 mph /  9.7 km/h 98 % 0.00 in /  0 mm
03:40 40.2 °F /  4.6 °C 39.7 °F /  4.3 °C 29.93 in /  1013.4 hPa East 4.6 mph /  7.4 km/h 5.8 mph /  9.3 km/h 98 % 0.00 in /  0 mm
03:45 40.2 °F /  4.6 °C 39.7 °F /  4.3 °C 29.93 in /  1013.4 hPa East 5.0 mph /  8 km/h 7.0 mph /  11.3 km/h 98 % 0.00 in /  0 mm
03:50 40.1 °F /  4.5 °C 39.6 °F /  4.2 °C 29.94 in /  1013.8 hPa NE 3.2 mph /  5.1 km/h 5.0 mph /  8 km/h 98 % 0.00 in /  0 mm
03:55 40.1 °F /  4.5 °C 39.6 °F /  4.2 °C 29.94 in /  1013.8 hPa ENE 2.7 mph /  4.3 km/h 4.6 mph /  7.4 km/h 98 % 0.00 in /  0 mm
04:00 40.1 °F /  4.5 °C 39.6 °F /  4.2 °C 29.93 in /  1013.4 hPa East 4.3 mph /  6.9 km/h 8.1 mph /  13 km/h 98 % 0.00 in /  0 mm
04:05 40.0 °F /  4.4 °C 39.5 °F /  4.2 °C 29.92 in /  1013.1 hPa East 5.2 mph /  8.4 km/h 6.9 mph /  11.1 km/h 98 % 0.00 in /  0 mm
04:10 40.1 °F /  4.5 °C 39.6 °F /  4.2 °C 29.92 in /  1013.1 hPa ENE 5.8 mph /  9.3 km/h 8.1 mph /  13 km/h 98 % 0.00 in /  0 mm
04:15 40.0 °F /  4.4 °C 39.5 °F /  4.2 °C 29.93 in /  1013.4 hPa ENE 2.6 mph /  4.2 km/h 4.6 mph /  7.4 km/h 98 % 0.00 in /  0 mm
04:17 40.0 °F /  4.4 °C 39.5 °F /  4.2 °C 29.94 in /  1013.8 hPa NNW 1.9 mph /  3.1 km/h 4.0 mph /  6.4 km/h 98 % 0.00 in /  0 mm
04:22 40.0 °F /  4.4 °C 39.5 °F /  4.2 °C 29.94 in /  1013.8 hPa ENE 2.6 mph /  4.2 km/h 5.8 mph /  9.3 km/h 98 % 0.00 in /  0 mm
04:27 39.9 °F /  4.4 °C 39.4 °F /  4.1 °C 29.92 in /  1013.1 hPa East 5.7 mph /  9.2 km/h 6.9 mph /  11.1 km/h 98 % 0.00 in /  0 mm
04:32 39.9 °F /  4.4 °C 39.4 °F /  4.1 °C 29.92 in /  1013.1 hPa NE 5.7 mph /  9.2 km/h 9.2 mph /  14.8 km/h 98 % 0.00 in /  0 mm
04:37 39.8 °F /  4.3 °C 39.3 °F /  4.1 °C 29.93 in /  1013.4 hPa East 1.7 mph /  2.7 km/h 8.1 mph /  13 km/h 98 % 0.00 in /  0 mm
04:42 39.8 °F /  4.3 °C 39.3 °F /  4.1 °C 29.93 in /  1013.4 hPa ENE 4.3 mph /  6.9 km/h 6.9 mph /  11.1 km/h 98 % 0.00 in /  0 mm
04:47 39.8 °F /  4.3 °C 39.3 °F /  4.1 °C 29.93 in /  1013.4 hPa East 3.6 mph /  5.8 km/h 5.0 mph /  8 km/h 98 % 0.00 in /  0 mm
04:52 39.9 °F /  4.4 °C 39.4 °F /  4.1 °C 29.92 in /  1013.1 hPa East 4.4 mph /  7.1 km/h 5.8 mph /  9.3 km/h 98 % 0.00 in /  0 mm
04:57 40.0 °F /  4.4 °C 39.5 °F /  4.2 °C 29.91 in /  1012.8 hPa East 6.2 mph /  10 km/h 9.2 mph /  14.8 km/h 98 % 0.00 in /  0 mm
05:02 40.1 °F /  4.5 °C 39.6 °F /  4.2 °C 29.93 in /  1013.4 hPa Calm   1.2 mph /  1.9 km/h 98 % 0.00 in /  0 mm
05:07 40.1 °F /  4.5 °C 39.6 °F /  4.2 °C 29.93 in /  1013.4 hPa East 0.7 mph /  1.1 km/h 1.2 mph /  1.9 km/h 98 % 0.00 in /  0 mm
05:12 40.2 °F /  4.6 °C 39.7 °F /  4.3 °C 29.93 in /  1013.4 hPa ESE 1.7 mph /  2.7 km/h 3.5 mph /  5.6 km/h 98 % 0.00 in /  0 mm
05:13 40.2 °F /  4.6 °C 39.7 °F /  4.3 °C 29.93 in /  1013.4 hPa East 2.4 mph /  3.9 km/h 5.0 mph /  8 km/h 98 % 0.00 in /  0 mm
05:18 40.4 °F /  4.7 °C 39.9 °F /  4.4 °C 29.92 in /  1013.1 hPa East 4.0 mph /  6.4 km/h 5.8 mph /  9.3 km/h 98 % 0.00 in /  0 mm
05:23 40.5 °F /  4.7 °C 40.0 °F /  4.4 °C 29.92 in /  1013.1 hPa East 0.3 mph /  0.5 km/h 3.5 mph /  5.6 km/h 98 % 0.00 in /  0 mm
05:28 40.6 °F /  4.8 °C 40.1 °F /  4.5 °C 29.97 in /  1014.8 hPa NNW 6.4 mph /  10.3 km/h 11.5 mph /  18.5 km/h 98 % 0.00 in /  0 mm
05:33 40.5 °F /  4.7 °C 40.0 °F /  4.4 °C 29.94 in /  1013.8 hPa North 3.9 mph /  6.3 km/h 5.0 mph /  8 km/h 98 % 0.00 in /  0 mm
05:38 40.4 °F /  4.7 °C 39.9 °F /  4.4 °C 29.96 in /  1014.4 hPa NNW 2.5 mph /  4 km/h 5.0 mph /  8 km/h 98 % 0.00 in /  0 mm
05:43 40.3 °F /  4.6 °C 39.8 °F /  4.3 °C 29.96 in /  1014.4 hPa NNE 4.1 mph /  6.6 km/h 5.8 mph /  9.3 km/h 98 % 0.00 in /  0 mm
05:48 40.2 °F /  4.6 °C 39.7 °F /  4.3 °C 29.94 in /  1013.8 hPa ENE 4.5 mph /  7.2 km/h 8.1 mph /  13 km/h 98 % 0.00 in /  0 mm
05:53 40.0 °F /  4.4 °C 39.5 °F /  4.2 °C 29.94 in /  1013.8 hPa East 0.7 mph /  1.1 km/h 5.8 mph /  9.3 km/h 98 % 0.00 in /  0 mm
05:58 39.9 °F /  4.4 °C 39.4 °F /  4.1 °C 29.94 in /  1013.8 hPa East 2.3 mph /  3.7 km/h 5.0 mph /  8 km/h 98 % 0.00 in /  0 mm
06:03 39.9 °F /  4.4 °C 39.4 °F /  4.1 °C 29.94 in /  1013.8 hPa East 2.0 mph /  3.2 km/h 3.5 mph /  5.6 km/h 98 % 0.00 in /  0 mm
06:08 39.9 °F /  4.4 °C 39.4 °F /  4.1 °C 29.94 in /  1013.8 hPa ENE 4.5 mph /  7.2 km/h 6.9 mph /  11.1 km/h 98 % 0.00 in /  0 mm
06:13 39.8 °F /  4.3 °C 39.3 °F /  4.1 °C 29.94 in /  1013.8 hPa North 3.6 mph /  5.8 km/h 5.0 mph /  8 km/h 98 % 0.00 in /  0 mm
06:18 39.8 °F /  4.3 °C 39.3 °F /  4.1 °C 29.93 in /  1013.4 hPa East 5.0 mph /  8 km/h 6.9 mph /  11.1 km/h 98 % 0.00 in /  0 mm
06:23 39.7 °F /  4.3 °C 39.2 °F /  4 °C 29.93 in /  1013.4 hPa East 2.5 mph /  4 km/h 5.8 mph /  9.3 km/h 98 % 0.00 in /  0 mm
06:28 39.7 °F /  4.3 °C 39.2 °F /  4 °C 29.94 in /  1013.8 hPa ENE 2.5 mph /  4 km/h 3.0 mph /  4.8 km/h 98 % 0.00 in /  0 mm
06:33 39.6 °F /  4.2 °C 39.1 °F /  3.9 °C 29.93 in /  1013.4 hPa East 6.4 mph /  10.3 km/h 8.1 mph /  13 km/h 98 % 0.00 in /  0 mm
06:38 39.6 °F /  4.2 °C 39.1 °F /  3.9 °C 29.93 in /  1013.4 hPa East 3.3 mph /  5.3 km/h 6.9 mph /  11.1 km/h 98 % 0.00 in /  0 mm
06:43 39.5 °F /  4.2 °C 39.0 °F /  3.9 °C 29.94 in /  1013.8 hPa ENE 6.4 mph /  10.3 km/h 8.1 mph /  13 km/h 98 % 0.00 in /  0 mm
06:48 39.6 °F /  4.2 °C 39.1 °F /  3.9 °C 29.93 in /  1013.4 hPa ENE 3.8 mph /  6.1 km/h 6.9 mph /  11.1 km/h 98 % 0.00 in /  0 mm
06:53 39.5 °F /  4.2 °C 39.0 °F /  3.9 °C 29.94 in /  1013.8 hPa ENE 5.2 mph /  8.4 km/h 6.9 mph /  11.1 km/h 98 % 0.00 in /  0 mm
06:58 39.6 °F /  4.2 °C 39.1 °F /  3.9 °C 29.93 in /  1013.4 hPa ESE 6.9 mph /  11.1 km/h 9.2 mph /  14.8 km/h 98 % 0.00 in /  0 mm
07:04 39.6 °F /  4.2 °C 39.1 °F /  3.9 °C 29.93 in /  1013.4 hPa ENE 4.6 mph /  7.4 km/h 8.1 mph /  13 km/h 98 % 0.00 in /  0 mm
07:09 39.5 °F /  4.2 °C 39.0 °F /  3.9 °C 29.94 in /  1013.8 hPa ENE 4.8 mph /  7.7 km/h 9.2 mph /  14.8 km/h 98 % 0.00 in /  0 mm
07:14 39.5 °F /  4.2 °C 39.0 °F /  3.9 °C 29.94 in /  1013.8 hPa ENE 3.3 mph /  5.3 km/h 4.0 mph /  6.4 km/h 98 % 0.00 in /  0 mm
07:19 39.5 °F /  4.2 °C 39.0 °F /  3.9 °C 29.94 in /  1013.8 hPa East 3.9 mph /  6.3 km/h 5.0 mph /  8 km/h 98 % 0.00 in /  0 mm
07:24 39.5 °F /  4.2 °C 39.0 °F /  3.9 °C 29.94 in /  1013.8 hPa ENE 1.6 mph /  2.6 km/h 3.5 mph /  5.6 km/h 98 % 0.00 in /  0 mm
07:29 39.5 °F /  4.2 °C 39.0 °F /  3.9 °C 29.94 in /  1013.8 hPa ENE 4.8 mph /  7.7 km/h 8.0 mph /  12.9 km/h 98 % 0.00 in /  0 mm
07:34 39.5 °F /  4.2 °C 39.0 °F /  3.9 °C 29.94 in /  1013.8 hPa East 4.0 mph /  6.4 km/h 6.0 mph /  9.7 km/h 98 % 0.00 in /  0 mm
07:39 39.6 °F /  4.2 °C 39.1 °F /  3.9 °C 29.94 in /  1013.8 hPa East 3.7 mph /  6 km/h 4.6 mph /  7.4 km/h 98 % 0.00 in /  0 mm
07:44 39.6 °F /  4.2 °C 39.1 °F /  3.9 °C 29.94 in /  1013.8 hPa East 4.1 mph /  6.6 km/h 5.8 mph /  9.3 km/h 98 % 0.00 in /  0 mm
07:49 39.7 °F /  4.3 °C 39.2 °F /  4 °C 29.94 in /  1013.8 hPa ENE 2.7 mph /  4.3 km/h 3.5 mph /  5.6 km/h 98 % 0.00 in /  0 mm
07:54 39.8 °F /  4.3 °C 39.3 °F /  4.1 °C 29.94 in /  1013.8 hPa ENE 3.6 mph /  5.8 km/h 4.6 mph /  7.4 km/h 98 % 0.00 in /  0 mm
07:59 39.8 °F /  4.3 °C 39.3 °F /  4.1 °C 29.94 in /  1013.8 hPa ENE 2.7 mph /  4.3 km/h 3.5 mph /  5.6 km/h 98 % 0.00 in /  0 mm
08:04 39.8 °F /  4.3 °C 39.3 °F /  4.1 °C 29.94 in /  1013.8 hPa ENE 3.1 mph /  5 km/h 3.5 mph /  5.6 km/h 98 % 0.00 in /  0 mm
08:09 39.8 °F /  4.3 °C 39.3 °F /  4.1 °C 29.94 in /  1013.8 hPa East 2.8 mph /  4.5 km/h 4.6 mph /  7.4 km/h 98 % 0.00 in /  0 mm
08:14 39.8 °F /  4.3 °C 39.3 °F /  4.1 °C 29.94 in /  1013.8 hPa East 3.9 mph /  6.3 km/h 5.8 mph /  9.3 km/h 98 % 0.00 in /  0 mm
08:19 39.8 °F /  4.3 °C 39.3 °F /  4.1 °C 29.95 in /  1014.1 hPa East 2.0 mph /  3.2 km/h 3.5 mph /  5.6 km/h 98 % 0.00 in /  0 mm
08:24 39.9 °F /  4.4 °C 39.4 °F /  4.1 °C 29.95 in /  1014.1 hPa ENE 2.3 mph /  3.7 km/h 4.6 mph /  7.4 km/h 98 % 0.00 in /  0 mm
08:29 39.9 °F /  4.4 °C 39.4 °F /  4.1 °C 29.94 in /  1013.8 hPa East 1.7 mph /  2.7 km/h 3.0 mph /  4.8 km/h 98 % 0.00 in /  0 mm
08:34 39.9 °F /  4.4 °C 39.4 °F /  4.1 °C 29.95 in /  1014.1 hPa ENE 2.7 mph /  4.3 km/h 5.8 mph /  9.3 km/h 98 % 0.00 in /  0 mm
08:39 39.9 °F /  4.4 °C 39.4 °F /  4.1 °C 29.95 in /  1014.1 hPa ENE 4.5 mph /  7.2 km/h 6.9 mph /  11.1 km/h 98 % 0.00 in /  0 mm
08:44 39.9 °F /  4.4 °C 39.4 °F /  4.1 °C 29.95 in /  1014.1 hPa ENE 2.8 mph /  4.5 km/h 4.6 mph /  7.4 km/h 98 % 0.00 in /  0 mm
08:49 39.9 °F /  4.4 °C 39.4 °F /  4.1 °C 29.95 in /  1014.1 hPa East 4.1 mph /  6.6 km/h 6.0 mph /  9.7 km/h 98 % 0.00 in /  0 mm
08:54 39.8 °F /  4.3 °C 39.3 °F /  4.1 °C 29.94 in /  1013.8 hPa East 5.4 mph /  8.7 km/h 9.2 mph /  14.8 km/h 98 % 0.00 in /  0 mm
08:59 39.8 °F /  4.3 °C 39.3 °F /  4.1 °C 29.95 in /  1014.1 hPa ENE 4.5 mph /  7.2 km/h 7.0 mph /  11.3 km/h 98 % 0.00 in /  0 mm
09:04 39.7 °F /  4.3 °C 39.2 °F /  4 °C 29.94 in /  1013.8 hPa ENE 4.7 mph /  7.6 km/h 5.8 mph /  9.3 km/h 98 % 0.00 in /  0 mm
09:09 39.7 °F /  4.3 °C 39.2 °F /  4 °C 29.94 in /  1013.8 hPa ENE 6.4 mph /  10.3 km/h 9.2 mph /  14.8 km/h 98 % 0.00 in /  0 mm
09:14 39.7 °F /  4.3 °C 39.2 °F /  4 °C 29.93 in /  1013.4 hPa NE 6.2 mph /  10 km/h 8.1 mph /  13 km/h 98 % 0.00 in /  0 mm
09:19 39.8 °F /  4.3 °C 39.3 °F /  4.1 °C 29.93 in /  1013.4 hPa ENE 5.8 mph /  9.3 km/h 8.1 mph /  13 km/h 98 % 0.00 in /  0 mm
09:24 39.8 °F /  4.3 °C 39.3 °F /  4.1 °C 29.93 in /  1013.4 hPa ENE 9.2 mph /  14.8 km/h 13.0 mph /  20.9 km/h 98 % 0.00 in /  0 mm
09:30 39.8 °F /  4.3 °C 39.3 °F /  4.1 °C 29.92 in /  1013.1 hPa ENE 8.3 mph /  13.4 km/h 12.7 mph /  20.4 km/h 98 % 0.00 in /  0 mm
09:35 39.9 °F /  4.4 °C 39.4 °F /  4.1 °C 29.92 in /  1013.1 hPa ENE 10.2 mph /  16.4 km/h 13.8 mph /  22.2 km/h 98 % 0.00 in /  0 mm
09:40 40.0 °F /  4.4 °C 39.5 °F /  4.2 °C 29.92 in /  1013.1 hPa East 9.3 mph /  15 km/h 13.8 mph /  22.2 km/h 98 % 0.00 in /  0 mm
09:45 40.1 °F /  4.5 °C 39.6 °F /  4.2 °C 29.92 in /  1013.1 hPa East 7.0 mph /  11.3 km/h 10.4 mph /  16.7 km/h 98 % 0.00 in /  0 mm
09:50 40.2 °F /  4.6 °C 39.7 °F /  4.3 °C 29.92 in /  1013.1 hPa ENE 8.0 mph /  12.9 km/h 11.5 mph /  18.5 km/h 98 % 0.00 in /  0 mm
09:55 40.2 °F /  4.6 °C 39.7 °F /  4.3 °C 29.93 in /  1013.4 hPa ENE 6.7 mph /  10.8 km/h 9.2 mph /  14.8 km/h 98 % 0.00 in /  0 mm
10:00 40.2 °F /  4.6 °C 39.7 °F /  4.3 °C 29.92 in /  1013.1 hPa NE 10.3 mph /  16.6 km/h 12.7 mph /  20.4 km/h 98 % 0.00 in /  0 mm
10:05 40.2 °F /  4.6 °C 39.7 °F /  4.3 °C 29.92 in /  1013.1 hPa East 10.1 mph /  16.3 km/h 12.0 mph /  19.3 km/h 98 % 0.00 in /  0 mm
10:10 40.1 °F /  4.5 °C 39.6 °F /  4.2 °C 29.93 in /  1013.4 hPa East 6.1 mph /  9.8 km/h 13.8 mph /  22.2 km/h 98 % 0.00 in /  0 mm
10:15 40.2 °F /  4.6 °C 39.7 °F /  4.3 °C 29.93 in /  1013.4 hPa East 5.0 mph /  8 km/h 6.0 mph /  9.7 km/h 98 % 0.00 in /  0 mm
10:20 40.3 °F /  4.6 °C 39.8 °F /  4.3 °C 29.93 in /  1013.4 hPa East 5.0 mph /  8 km/h 8.0 mph /  12.9 km/h 98 % 0.00 in /  0 mm
10:25 40.3 °F /  4.6 °C 39.8 °F /  4.3 °C 29.93 in /  1013.4 hPa ENE 7.1 mph /  11.4 km/h 9.0 mph /  14.5 km/h 98 % 0.00 in /  0 mm
10:30 40.3 °F /  4.6 °C 39.8 °F /  4.3 °C 29.94 in /  1013.8 hPa East 4.4 mph /  7.1 km/h 4.6 mph /  7.4 km/h 98 % 0.00 in /  0 mm
10:35 40.3 °F /  4.6 °C 39.8 °F /  4.3 °C 29.94 in /  1013.8 hPa ENE 3.6 mph /  5.8 km/h 8.1 mph /  13 km/h 98 % 0.00 in /  0 mm
10:41 40.3 °F /  4.6 °C 39.8 °F /  4.3 °C 29.94 in /  1013.8 hPa East 4.8 mph /  7.7 km/h 6.9 mph /  11.1 km/h 98 % 0.00 in /  0 mm
10:46 40.3 °F /  4.6 °C 39.8 °F /  4.3 °C 29.94 in /  1013.8 hPa ENE 4.1 mph /  6.6 km/h 5.0 mph /  8 km/h 98 % 0.00 in /  0 mm
10:51 40.2 °F /  4.6 °C 39.7 °F /  4.3 °C 29.95 in /  1014.1 hPa ENE 1.9 mph /  3.1 km/h 3.5 mph /  5.6 km/h 98 % 0.00 in /  0 mm
10:56 40.2 °F /  4.6 °C 39.7 °F /  4.3 °C 29.95 in /  1014.1 hPa NNE 2.1 mph /  3.4 km/h 3.5 mph /  5.6 km/h 98 % 0.00 in /  0 mm
11:01 40.2 °F /  4.6 °C 39.7 °F /  4.3 °C 29.94 in /  1013.8 hPa NNE 1.0 mph /  1.6 km/h 2.3 mph /  3.7 km/h 98 % 0.00 in /  0 mm
11:06 40.2 °F /  4.6 °C 39.7 °F /  4.3 °C 29.95 in /  1014.1 hPa ENE 2.3 mph /  3.7 km/h 3.5 mph /  5.6 km/h 98 % 0.00 in /  0 mm
11:11 40.2 °F /  4.6 °C 39.7 °F /  4.3 °C 29.95 in /  1014.1 hPa ENE 0.5 mph /  0.8 km/h 2.3 mph /  3.7 km/h 98 % 0.00 in /  0 mm
11:16 40.2 °F /  4.6 °C 39.7 °F /  4.3 °C 29.94 in /  1013.8 hPa ENE 2.8 mph /  4.5 km/h 4.0 mph /  6.4 km/h 98 % 0.00 in /  0 mm
11:21 40.2 °F /  4.6 °C 39.7 °F /  4.3 °C 29.95 in /  1014.1 hPa ENE 0.8 mph /  1.3 km/h 2.0 mph /  3.2 km/h 98 % 0.00 in /  0 mm
11:26 40.1 °F /  4.5 °C 39.6 °F /  4.2 °C 29.96 in /  1014.4 hPa Calm     98 % 0.00 in /  0 mm
11:31 40.1 °F /  4.5 °C 39.6 °F /  4.2 °C 29.97 in /  1014.8 hPa West 0.9 mph /  1.4 km/h 3.0 mph /  4.8 km/h 98 % 0.00 in /  0 mm
11:36 40.1 °F /  4.5 °C 39.6 °F /  4.2 °C 29.97 in /  1014.8 hPa Calm     98 % 0.00 in /  0 mm
11:41 40.2 °F /  4.6 °C 39.7 °F /  4.3 °C 29.97 in /  1014.8 hPa Calm     98 % 0.00 in /  0 mm
11:46 40.2 °F /  4.6 °C 39.7 °F /  4.3 °C 29.97 in /  1014.8 hPa Calm     98 % 0.00 in /  0 mm
11:51 40.2 °F /  4.6 °C 39.7 °F /  4.3 °C 29.97 in /  1014.8 hPa West 0.8 mph /  1.3 km/h 2.0 mph /  3.2 km/h 98 % 0.00 in /  0 mm
11:56 40.3 °F /  4.6 °C 39.8 °F /  4.3 °C 29.96 in /  1014.4 hPa NE 1.7 mph /  2.7 km/h 3.5 mph /  5.6 km/h 98 % 0.00 in /  0 mm
12:01 40.2 °F /  4.6 °C 39.7 °F /  4.3 °C 29.95 in /  1014.1 hPa ENE 3.0 mph /  4.8 km/h 5.0 mph /  8 km/h 98 % 0.00 in /  0 mm
12:07 40.1 °F /  4.5 °C 39.6 °F /  4.2 °C 29.95 in /  1014.1 hPa ENE 3.3 mph /  5.3 km/h 5.0 mph /  8 km/h 98 % 0.00 in /  0 mm
12:09 40.1 °F /  4.5 °C 39.6 °F /  4.2 °C 29.95 in /  1014.1 hPa ENE 3.6 mph /  5.8 km/h 5.0 mph /  8 km/h 98 % 0.00 in /  0 mm
12:14 40.0 °F /  4.4 °C 39.5 °F /  4.2 °C 29.94 in /  1013.8 hPa ENE 3.8 mph /  6.1 km/h 6.9 mph /  11.1 km/h 98 % 0.00 in /  0 mm
12:19 40.0 °F /  4.4 °C 39.5 °F /  4.2 °C 29.93 in /  1013.4 hPa ENE 5.2 mph /  8.4 km/h 7.0 mph /  11.3 km/h 98 % 0.00 in /  0 mm
12:24 39.9 °F /  4.4 °C 39.4 °F /  4.1 °C 29.92 in /  1013.1 hPa East 6.6 mph /  10.6 km/h 10.0 mph /  16.1 km/h 98 % 0.00 in /  0 mm
12:29 39.9 °F /  4.4 °C 39.4 °F /  4.1 °C 29.92 in /  1013.1 hPa East 5.5 mph /  8.9 km/h 10.4 mph /  16.7 km/h 98 % 0.00 in /  0 mm
12:34 39.9 °F /  4.4 °C 39.4 °F /  4.1 °C 29.92 in /  1013.1 hPa NE 5.9 mph /  9.5 km/h 10.4 mph /  16.7 km/h 98 % 0.00 in /  0 mm
12:39 39.9 °F /  4.4 °C 39.4 °F /  4.1 °C 29.91 in /  1012.8 hPa East 7.5 mph /  12.1 km/h 10.4 mph /  16.7 km/h 98 % 0.00 in /  0 mm
12:44 39.9 °F /  4.4 °C 39.4 °F /  4.1 °C 29.91 in /  1012.8 hPa ENE 5.5 mph /  8.9 km/h 9.2 mph /  14.8 km/h 98 % 0.00 in /  0 mm
12:50 39.9 °F /  4.4 °C 39.4 °F /  4.1 °C 29.92 in /  1013.1 hPa East 6.2 mph /  10 km/h 8.1 mph /  13 km/h 98 % 0.00 in /  0 mm
12:55 40.0 °F /  4.4 °C 39.5 °F /  4.2 °C 29.92 in /  1013.1 hPa ENE 5.2 mph /  8.4 km/h 7.0 mph /  11.3 km/h 98 % 0.00 in /  0 mm
12:59 40.0 °F /  4.4 °C 39.5 °F /  4.2 °C 29.91 in /  1012.8 hPa East 7.4 mph /  11.9 km/h 10.0 mph /  16.1 km/h 98 % 0.00 in /  0 mm
13:05 40.0 °F /  4.4 °C 39.5 °F /  4.2 °C 29.91 in /  1012.8 hPa East 6.3 mph /  10.1 km/h 9.2 mph /  14.8 km/h 98 % 0.00 in /  0 mm
13:10 39.9 °F /  4.4 °C 39.4 °F /  4.1 °C 29.90 in /  1012.4 hPa East 7.0 mph /  11.3 km/h 9.2 mph /  14.8 km/h 98 % 0.00 in /  0 mm
13:15 39.8 °F /  4.3 °C 39.3 °F /  4.1 °C 29.91 in /  1012.8 hPa ESE 5.9 mph /  9.5 km/h 9.2 mph /  14.8 km/h 98 % 0.00 in /  0 mm
13:20 39.8 °F /  4.3 °C 39.3 °F /  4.1 °C 29.91 in /  1012.8 hPa East 7.5 mph /  12.1 km/h 9.2 mph /  14.8 km/h 98 % 0.00 in /  0 mm
13:22 39.8 °F /  4.3 °C 39.3 °F /  4.1 °C 29.91 in /  1012.8 hPa East 6.3 mph /  10.1 km/h 8.1 mph /  13 km/h 98 % 0.00 in /  0 mm
13:27 39.8 °F /  4.3 °C 39.3 °F /  4.1 °C 29.91 in /  1012.8 hPa East 5.6 mph /  9 km/h 7.0 mph /  11.3 km/h 98 % 0.00 in /  0 mm
13:28 39.8 °F /  4.3 °C 39.3 °F /  4.1 °C 29.91 in /  1012.8 hPa East 5.5 mph /  8.9 km/h 7.0 mph /  11.3 km/h 98 % 0.00 in /  0 mm
13:33 39.8 °F /  4.3 °C 39.3 °F /  4.1 °C 29.91 in /  1012.8 hPa East 6.1 mph /  9.8 km/h 7.0 mph /  11.3 km/h 98 % 0.00 in /  0 mm
13:38 40.0 °F /  4.4 °C 39.5 °F /  4.2 °C 29.91 in /  1012.8 hPa East 5.9 mph /  9.5 km/h 7.0 mph /  11.3 km/h 98 % 0.00 in /  0 mm
13:43 40.1 °F /  4.5 °C 39.6 °F /  4.2 °C 29.91 in /  1012.8 hPa East 4.8 mph /  7.7 km/h 6.0 mph /  9.7 km/h 98 % 0.00 in /  0 mm
13:48 40.2 °F /  4.6 °C 39.7 °F /  4.3 °C 29.90 in /  1012.4 hPa East 7.0 mph /  11.3 km/h 8.1 mph /  13 km/h 98 % 0.00 in /  0 mm
13:53 40.4 °F /  4.7 °C 39.9 °F /  4.4 °C 29.90 in /  1012.4 hPa East 7.1 mph /  11.4 km/h 10.0 mph /  16.1 km/h 98 % 0.00 in /  0 mm
13:58 40.5 °F /  4.7 °C 40.0 °F /  4.4 °C 29.90 in /  1012.4 hPa East 5.7 mph /  9.2 km/h 9.2 mph /  14.8 km/h 98 % 0.00 in /  0 mm
14:03 40.6 °F /  4.8 °C 40.1 °F /  4.5 °C 29.90 in /  1012.4 hPa ENE 4.7 mph /  7.6 km/h 8.1 mph /  13 km/h 98 % 0.00 in /  0 mm
14:08 40.6 °F /  4.8 °C 40.1 °F /  4.5 °C 29.91 in /  1012.8 hPa ENE 4.2 mph /  6.8 km/h 4.6 mph /  7.4 km/h 98 % 0.00 in /  0 mm
14:13 40.6 °F /  4.8 °C 40.1 °F /  4.5 °C 29.91 in /  1012.8 hPa ENE 4.5 mph /  7.2 km/h 5.8 mph /  9.3 km/h 98 % 0.00 in /  0 mm
14:18 40.6 °F /  4.8 °C 40.1 °F /  4.5 °C 29.91 in /  1012.8 hPa ENE 3.5 mph /  5.6 km/h 5.8 mph /  9.3 km/h 98 % 0.00 in /  0 mm
14:23 40.5 °F /  4.7 °C 40.0 °F /  4.4 °C 29.91 in /  1012.8 hPa ENE 5.0 mph /  8 km/h 7.0 mph /  11.3 km/h 98 % 0.00 in /  0 mm
14:28 40.5 °F /  4.7 °C 40.0 °F /  4.4 °C 29.91 in /  1012.8 hPa East 4.8 mph /  7.7 km/h 5.8 mph /  9.3 km/h 98 % 0.00 in /  0 mm
14:38 40.4 °F /  4.7 °C 39.9 °F /  4.4 °C 29.91 in /  1012.8 hPa ENE 3.1 mph /  5 km/h 5.8 mph /  9.3 km/h 98 % 0.00 in /  0 mm
14:43 40.4 °F /  4.7 °C 39.9 °F /  4.4 °C 29.91 in /  1012.8 hPa East 5.7 mph /  9.2 km/h 9.2 mph /  14.8 km/h 98 % 0.00 in /  0 mm
14:49 40.3 °F /  4.6 °C 39.8 °F /  4.3 °C 29.91 in /  1012.8 hPa ENE 5.5 mph /  8.9 km/h 10.4 mph /  16.7 km/h 98 % 0.00 in /  0 mm
14:54 40.1 °F /  4.5 °C 39.6 °F /  4.2 °C 29.91 in /  1012.8 hPa NE 4.9 mph /  7.9 km/h 10.4 mph /  16.7 km/h 98 % 0.00 in /  0 mm
14:59 39.9 °F /  4.4 °C 39.4 °F /  4.1 °C 29.90 in /  1012.4 hPa ENE 6.8 mph /  10.9 km/h 10.4 mph /  16.7 km/h 98 % 0.00 in /  0 mm
15:04 39.9 °F /  4.4 °C 39.4 °F /  4.1 °C 29.90 in /  1012.4 hPa ENE 3.8 mph /  6.1 km/h 6.9 mph /  11.1 km/h 98 % 0.00 in /  0 mm
15:09 39.8 °F /  4.3 °C 39.3 °F /  4.1 °C 29.90 in /  1012.4 hPa ENE 7.6 mph /  12.2 km/h 13.8 mph /  22.2 km/h 98 % 0.00 in /  0 mm
15:14 39.7 °F /  4.3 °C 39.2 °F /  4 °C 29.89 in /  1012.1 hPa ENE 5.3 mph /  8.5 km/h 10.4 mph /  16.7 km/h 98 % 0.00 in /  0 mm
15:19 39.6 °F /  4.2 °C 39.1 °F /  3.9 °C 29.89 in /  1012.1 hPa ENE 9.5 mph /  15.3 km/h 13.8 mph /  22.2 km/h 98 % 0.00 in /  0 mm
15:24 39.6 °F /  4.2 °C 39.1 °F /  3.9 °C 29.89 in /  1012.1 hPa ENE 7.3 mph /  11.7 km/h 9.2 mph /  14.8 km/h 98 % 0.00 in /  0 mm
15:29 39.6 °F /  4.2 °C 39.1 °F /  3.9 °C 29.89 in /  1012.1 hPa ENE 6.8 mph /  10.9 km/h 9.2 mph /  14.8 km/h 98 % 0.00 in /  0 mm
15:34 39.6 °F /  4.2 °C 39.1 °F /  3.9 °C 29.88 in /  1011.7 hPa ENE 6.9 mph /  11.1 km/h 10.4 mph /  16.7 km/h 98 % 0.00 in /  0 mm
15:39 39.6 °F /  4.2 °C 39.1 °F /  3.9 °C 29.88 in /  1011.7 hPa ENE 7.2 mph /  11.6 km/h 9.2 mph /  14.8 km/h 98 % 0.00 in /  0 mm
15:44 39.6 °F /  4.2 °C 39.1 °F /  3.9 °C 29.86 in /  1011.1 hPa ENE 8.8 mph /  14.2 km/h 13.8 mph /  22.2 km/h 98 % 0.00 in /  0 mm
15:49 39.6 °F /  4.2 °C 39.1 °F /  3.9 °C 29.86 in /  1011.1 hPa East 11.0 mph /  17.7 km/h 15.0 mph /  24.1 km/h 98 % 0.00 in /  0 mm
15:54 39.6 °F /  4.2 °C 39.1 °F /  3.9 °C 29.86 in /  1011.1 hPa ENE 7.4 mph /  11.9 km/h 16.1 mph /  25.9 km/h 98 % 0.00 in /  0 mm
15:59 39.5 °F /  4.2 °C 39.0 °F /  3.9 °C 29.85 in /  1010.7 hPa East 10.8 mph /  17.4 km/h 17.3 mph /  27.8 km/h 98 % 0.00 in /  0 mm
16:04 39.5 °F /  4.2 °C 39.0 °F /  3.9 °C 29.85 in /  1010.7 hPa East 8.6 mph /  13.8 km/h 11.5 mph /  18.5 km/h 98 % 0.00 in /  0 mm
16:09 39.6 °F /  4.2 °C 39.1 °F /  3.9 °C 29.86 in /  1011.1 hPa ENE 6.6 mph /  10.6 km/h 10.4 mph /  16.7 km/h 98 % 0.00 in /  0 mm
16:14 39.7 °F /  4.3 °C 39.2 °F /  4 °C 29.86 in /  1011.1 hPa ESE 7.5 mph /  12.1 km/h 10.4 mph /  16.7 km/h 98 % 0.00 in /  0 mm
16:20 39.8 °F /  4.3 °C 39.3 °F /  4.1 °C 29.86 in /  1011.1 hPa East 6.6 mph /  10.6 km/h 9.2 mph /  14.8 km/h 98 % 0.00 in /  0 mm
16:25 39.9 °F /  4.4 °C 39.4 °F /  4.1 °C 29.86 in /  1011.1 hPa East 8.3 mph /  13.4 km/h 11.5 mph /  18.5 km/h 98 % 0.00 in /  0 mm
16:30 40.0 °F /  4.4 °C 39.5 °F /  4.2 °C 29.87 in /  1011.4 hPa East 7.7 mph /  12.4 km/h 9.2 mph /  14.8 km/h 98 % 0.00 in /  0 mm
16:35 39.9 °F /  4.4 °C 39.4 °F /  4.1 °C 29.87 in /  1011.4 hPa East 9.0 mph /  14.5 km/h 11.5 mph /  18.5 km/h 98 % 0.00 in /  0 mm
16:40 40.0 °F /  4.4 °C 39.5 °F /  4.2 °C 29.86 in /  1011.1 hPa East 7.0 mph /  11.3 km/h 10.4 mph /  16.7 km/h 98 % 0.00 in /  0 mm
16:45 39.9 °F /  4.4 °C 39.4 °F /  4.1 °C 29.86 in /  1011.1 hPa East 6.1 mph /  9.8 km/h 8.1 mph /  13 km/h 98 % 0.00 in /  0 mm
16:50 39.9 °F /  4.4 °C 39.4 °F /  4.1 °C 29.86 in /  1011.1 hPa East 6.6 mph /  10.6 km/h 9.2 mph /  14.8 km/h 98 % 0.00 in /  0 mm
16:55 39.8 °F /  4.3 °C 39.3 °F /  4.1 °C 29.86 in /  1011.1 hPa ENE 7.0 mph /  11.3 km/h 8.1 mph /  13 km/h 98 % 0.00 in /  0 mm
17:00 39.8 °F /  4.3 °C 39.3 °F /  4.1 °C 29.85 in /  1010.7 hPa East 7.8 mph /  12.6 km/h 10.4 mph /  16.7 km/h 98 % 0.00 in /  0 mm
17:05 39.7 °F /  4.3 °C 39.2 °F /  4 °C 29.85 in /  1010.7 hPa East 7.6 mph /  12.2 km/h 10.4 mph /  16.7 km/h 98 % 0.00 in /  0 mm
17:10 39.6 °F /  4.2 °C 39.1 °F /  3.9 °C 29.86 in /  1011.1 hPa ENE 4.7 mph /  7.6 km/h 8.1 mph /  13 km/h 98 % 0.00 in /  0 mm
17:15 39.6 °F /  4.2 °C 39.1 °F /  3.9 °C 29.86 in /  1011.1 hPa ENE 5.8 mph /  9.3 km/h 9.2 mph /  14.8 km/h 98 % 0.00 in /  0 mm
17:20 39.6 °F /  4.2 °C 39.1 °F /  3.9 °C 29.87 in /  1011.4 hPa ENE 5.8 mph /  9.3 km/h 9.2 mph /  14.8 km/h 98 % 0.00 in /  0 mm
17:25 39.6 °F /  4.2 °C 39.1 °F /  3.9 °C 29.87 in /  1011.4 hPa East 6.0 mph /  9.7 km/h 8.1 mph /  13 km/h 98 % 0.00 in /  0 mm
17:30 39.6 °F /  4.2 °C 39.1 °F /  3.9 °C 29.87 in /  1011.4 hPa ENE 7.1 mph /  11.4 km/h 9.0 mph /  14.5 km/h 98 % 0.00 in /  0 mm
17:35 39.6 °F /  4.2 °C 39.1 °F /  3.9 °C 29.86 in /  1011.1 hPa NE 6.5 mph /  10.5 km/h 11.5 mph /  18.5 km/h 98 % 0.00 in /  0 mm
17:40 39.5 °F /  4.2 °C 39.0 °F /  3.9 °C 29.86 in /  1011.1 hPa ENE 6.7 mph /  10.8 km/h 9.2 mph /  14.8 km/h 98 % 0.00 in /  0 mm
17:45 39.5 °F /  4.2 °C 39.0 °F /  3.9 °C 29.86 in /  1011.1 hPa ENE 7.1 mph /  11.4 km/h 10.4 mph /  16.7 km/h 98 % 0.00 in /  0 mm
17:50 39.4 °F /  4.1 °C 38.9 °F /  3.8 °C 29.86 in /  1011.1 hPa East 7.7 mph /  12.4 km/h 13.8 mph /  22.2 km/h 98 % 0.00 in /  0 mm
17:55 39.4 °F /  4.1 °C 38.9 °F /  3.8 °C 29.86 in /  1011.1 hPa East 9.0 mph /  14.5 km/h 11.5 mph /  18.5 km/h 98 % 0.00 in /  0 mm
18:00 39.4 °F /  4.1 °C 38.9 °F /  3.8 °C 29.85 in /  1010.7 hPa ENE 9.1 mph /  14.6 km/h 13.8 mph /  22.2 km/h 98 % 0.00 in /  0 mm
18:05 39.4 °F /  4.1 °C 38.9 °F /  3.8 °C 29.85 in /  1010.7 hPa NE 10.0 mph /  16.1 km/h 12.7 mph /  20.4 km/h 98 % 0.00 in /  0 mm
18:10 39.3 °F /  4.1 °C 38.8 °F /  3.8 °C 29.85 in /  1010.7 hPa ENE 8.4 mph /  13.5 km/h 11.5 mph /  18.5 km/h 98 % 0.00 in /  0 mm
18:15 39.3 °F /  4.1 °C 38.8 °F /  3.8 °C 29.86 in /  1011.1 hPa ENE 9.4 mph /  15.1 km/h 12.0 mph /  19.3 km/h 98 % 0.00 in /  0 mm
18:20 39.3 °F /  4.1 °C 38.8 °F /  3.8 °C 29.86 in /  1011.1 hPa ENE 7.3 mph /  11.7 km/h 11.5 mph /  18.5 km/h 98 % 0.00 in /  0 mm
18:25 39.4 °F /  4.1 °C 38.9 °F /  3.8 °C 29.87 in /  1011.4 hPa NE 7.7 mph /  12.4 km/h 11.5 mph /  18.5 km/h 98 % 0.00 in /  0 mm
18:30 39.4 °F /  4.1 °C 38.9 °F /  3.8 °C 29.87 in /  1011.4 hPa East 7.2 mph /  11.6 km/h 11.5 mph /  18.5 km/h 98 % 0.00 in /  0 mm
18:35 39.5 °F /  4.2 °C 39.0 °F /  3.9 °C 29.87 in /  1011.4 hPa ENE 6.9 mph /  11.1 km/h 11.5 mph /  18.5 km/h 98 % 0.00 in /  0 mm
18:40 39.5 °F /  4.2 °C 39.0 °F /  3.9 °C 29.88 in /  1011.7 hPa ENE 7.0 mph /  11.3 km/h 9.2 mph /  14.8 km/h 98 % 0.00 in /  0 mm
18:45 39.5 °F /  4.2 °C 39.0 °F /  3.9 °C 29.88 in /  1011.7 hPa ENE 7.0 mph /  11.3 km/h 10.0 mph /  16.1 km/h 98 % 0.00 in /  0 mm
18:50 39.5 °F /  4.2 °C 39.0 °F /  3.9 °C 29.88 in /  1011.7 hPa ENE 7.9 mph /  12.7 km/h 9.2 mph /  14.8 km/h 98 % 0.00 in /  0 mm
18:55 39.5 °F /  4.2 °C 39.0 °F /  3.9 °C 29.88 in /  1011.7 hPa ENE 6.5 mph /  10.5 km/h 10.4 mph /  16.7 km/h 98 % 0.00 in /  0 mm
19:00 39.6 °F /  4.2 °C 39.1 °F /  3.9 °C 29.88 in /  1011.7 hPa East 8.7 mph /  14 km/h 11.5 mph /  18.5 km/h 98 % 0.00 in /  0 mm
19:05 39.6 °F /  4.2 °C 39.1 °F /  3.9 °C 29.87 in /  1011.4 hPa NE 7.3 mph /  11.7 km/h 11.5 mph /  18.5 km/h 98 % 0.00 in /  0 mm
19:10 39.7 °F /  4.3 °C 39.2 °F /  4 °C 29.88 in /  1011.7 hPa ENE 7.1 mph /  11.4 km/h 11.5 mph /  18.5 km/h 98 % 0.00 in /  0 mm
19:15 39.8 °F /  4.3 °C 39.3 °F /  4.1 °C 29.88 in /  1011.7 hPa ENE 7.7 mph /  12.4 km/h 11.5 mph /  18.5 km/h 98 % 0.00 in /  0 mm
19:20 39.8 °F /  4.3 °C 39.3 °F /  4.1 °C 29.88 in /  1011.7 hPa ENE 7.6 mph /  12.2 km/h 9.2 mph /  14.8 km/h 98 % 0.00 in /  0 mm
19:25 39.9 °F /  4.4 °C 39.4 °F /  4.1 °C 29.88 in /  1011.7 hPa East 6.8 mph /  10.9 km/h 9.2 mph /  14.8 km/h 98 % 0.00 in /  0 mm
19:30 40.0 °F /  4.4 °C 39.5 °F /  4.2 °C 29.88 in /  1011.7 hPa East 6.1 mph /  9.8 km/h 8.1 mph /  13 km/h 98 % 0.01 in /  0.25 mm
19:35 40.0 °F /  4.4 °C 39.5 °F /  4.2 °C 29.88 in /  1011.7 hPa ENE 5.0 mph /  8 km/h 9.0 mph /  14.5 km/h 98 % 0.02 in /  0.51 mm
19:40 40.0 °F /  4.4 °C 39.5 °F /  4.2 °C 29.88 in /  1011.7 hPa ENE 7.0 mph /  11.3 km/h 11.5 mph /  18.5 km/h 98 % 0.03 in /  0.76 mm
19:45 40.1 °F /  4.5 °C 39.6 °F /  4.2 °C 29.88 in /  1011.7 hPa ENE 6.1 mph /  9.8 km/h 9.2 mph /  14.8 km/h 98 % 0.04 in /  1.02 mm
19:50 40.1 °F /  4.5 °C 39.6 °F /  4.2 °C 29.88 in /  1011.7 hPa ENE 6.7 mph /  10.8 km/h 9.2 mph /  14.8 km/h 98 % 0.04 in /  1.02 mm
19:56 40.1 °F /  4.5 °C 39.6 °F /  4.2 °C 29.88 in /  1011.7 hPa NE 8.4 mph /  13.5 km/h 10.4 mph /  16.7 km/h 98 % 0.04 in /  1.02 mm
20:01 40.1 °F /  4.5 °C 39.6 °F /  4.2 °C 29.88 in /  1011.7 hPa East 5.7 mph /  9.2 km/h 10.4 mph /  16.7 km/h 98 % 0.04 in /  1.02 mm
20:06 40.1 °F /  4.5 °C 39.6 °F /  4.2 °C 29.89 in /  1012.1 hPa ENE 4.6 mph /  7.4 km/h 7.0 mph /  11.3 km/h 98 % 0.06 in /  1.52 mm
20:11 40.2 °F /  4.6 °C 39.7 °F /  4.3 °C 29.89 in /  1012.1 hPa ENE 5.3 mph /  8.5 km/h 8.1 mph /  13 km/h 98 % 0.08 in /  2.03 mm
20:16 40.2 °F /  4.6 °C 39.7 °F /  4.3 °C 29.89 in /  1012.1 hPa ENE 5.5 mph /  8.9 km/h 8.1 mph /  13 km/h 98 % 0.11 in /  2.79 mm
20:21 40.2 °F /  4.6 °C 39.7 °F /  4.3 °C 29.89 in /  1012.1 hPa ENE 4.3 mph /  6.9 km/h 6.9 mph /  11.1 km/h 98 % 0.14 in /  3.56 mm
20:26 40.2 °F /  4.6 °C 39.7 °F /  4.3 °C 29.89 in /  1012.1 hPa ENE 3.5 mph /  5.6 km/h 5.8 mph /  9.3 km/h 98 % 0.16 in /  4.06 mm
20:31 40.2 °F /  4.6 °C 39.7 °F /  4.3 °C 29.89 in /  1012.1 hPa ENE 4.5 mph /  7.2 km/h 6.9 mph /  11.1 km/h 98 % 0.19 in /  4.83 mm
20:36 40.2 °F /  4.6 °C 39.7 °F /  4.3 °C 29.89 in /  1012.1 hPa East 4.6 mph /  7.4 km/h 6.9 mph /  11.1 km/h 98 % 0.19 in /  4.83 mm
20:41 40.2 °F /  4.6 °C 39.7 °F /  4.3 °C 29.89 in /  1012.1 hPa East 4.2 mph /  6.8 km/h 6.0 mph /  9.7 km/h 98 % 0.22 in /  5.59 mm
20:46 40.2 °F /  4.6 °C 39.7 °F /  4.3 °C 29.89 in /  1012.1 hPa ENE 5.1 mph /  8.2 km/h 5.8 mph /  9.3 km/h 98 % 0.24 in /  6.1 mm
20:51 40.2 °F /  4.6 °C 39.7 °F /  4.3 °C 29.90 in /  1012.4 hPa East 4.5 mph /  7.2 km/h 7.0 mph /  11.3 km/h 98 % 0.29 in /  7.37 mm
20:56 40.2 °F /  4.6 °C 39.7 °F /  4.3 °C 29.90 in /  1012.4 hPa ENE 2.2 mph /  3.5 km/h 3.5 mph /  5.6 km/h 98 % 0.33 in /  8.38 mm
21:01 40.3 °F /  4.6 °C 39.8 °F /  4.3 °C 29.90 in /  1012.4 hPa ENE 2.8 mph /  4.5 km/h 4.6 mph /  7.4 km/h 98 % 0.36 in /  9.14 mm
21:06 40.2 °F /  4.6 °C 39.7 °F /  4.3 °C 29.90 in /  1012.4 hPa ENE 2.9 mph /  4.7 km/h 3.5 mph /  5.6 km/h 98 % 0.36 in /  9.14 mm
21:11 40.2 °F /  4.6 °C 39.7 °F /  4.3 °C 29.90 in /  1012.4 hPa ENE 3.0 mph /  4.8 km/h 4.0 mph /  6.4 km/h 98 % 0.35 in /  8.89 mm
21:16 40.2 °F /  4.6 °C 39.7 °F /  4.3 °C 29.90 in /  1012.4 hPa ENE 2.3 mph /  3.7 km/h 3.5 mph /  5.6 km/h 98 % 0.34 in /  8.64 mm
21:21 40.3 °F /  4.6 °C 39.8 °F /  4.3 °C 29.90 in /  1012.4 hPa ENE 2.2 mph /  3.5 km/h 3.5 mph /  5.6 km/h 98 % 0.32 in /  8.13 mm
21:26 40.5 °F /  4.7 °C 40.0 °F /  4.4 °C 29.90 in /  1012.4 hPa ENE 2.3 mph /  3.7 km/h 3.5 mph /  5.6 km/h 98 % 0.31 in /  7.87 mm
21:31 40.5 °F /  4.7 °C 40.0 °F /  4.4 °C 29.90 in /  1012.4 hPa ENE 3.0 mph /  4.8 km/h 3.5 mph /  5.6 km/h 98 % 0.28 in /  7.11 mm
21:36 40.6 °F /  4.8 °C 40.1 °F /  4.5 °C 29.90 in /  1012.4 hPa ENE 3.0 mph /  4.8 km/h 3.5 mph /  5.6 km/h 98 % 0.26 in /  6.6 mm
21:41 40.7 °F /  4.8 °C 40.2 °F /  4.6 °C 29.91 in /  1012.8 hPa ENE 2.3 mph /  3.7 km/h 3.5 mph /  5.6 km/h 98 % 0.23 in /  5.84 mm
21:46 40.7 °F /  4.8 °C 40.2 °F /  4.6 °C 29.90 in /  1012.4 hPa NE 2.1 mph /  3.4 km/h 3.5 mph /  5.6 km/h 98 % 0.20 in /  5.08 mm
21:51 40.7 °F /  4.8 °C 40.2 °F /  4.6 °C 29.90 in /  1012.4 hPa ENE 1.4 mph /  2.3 km/h 2.3 mph /  3.7 km/h 98 % 0.15 in /  3.81 mm
21:56 40.6 °F /  4.8 °C 40.1 °F /  4.5 °C 29.90 in /  1012.4 hPa NNE 0.9 mph /  1.4 km/h 3.5 mph /  5.6 km/h 98 % 0.11 in /  2.79 mm
22:01 40.6 °F /  4.8 °C 40.1 °F /  4.5 °C 29.90 in /  1012.4 hPa NNE 3.1 mph /  5 km/h 3.5 mph /  5.6 km/h 98 % 0.08 in /  2.03 mm
22:06 40.5 °F /  4.7 °C 40.0 °F /  4.4 °C 29.91 in /  1012.8 hPa NNE 3.3 mph /  5.3 km/h 3.5 mph /  5.6 km/h 98 % 0.06 in /  1.52 mm
22:11 40.4 °F /  4.7 °C 39.9 °F /  4.4 °C 29.90 in /  1012.4 hPa NNE 1.4 mph /  2.3 km/h 3.5 mph /  5.6 km/h 98 % 0.05 in /  1.27 mm
22:16 40.4 °F /  4.7 °C 39.9 °F /  4.4 °C 29.91 in /  1012.8 hPa NNE 1.0 mph /  1.6 km/h 2.3 mph /  3.7 km/h 98 % 0.03 in /  0.76 mm
22:21 40.3 °F /  4.6 °C 39.8 °F /  4.3 °C 29.90 in /  1012.4 hPa NNE 1.3 mph /  2.1 km/h 3.5 mph /  5.6 km/h 98 % 0.02 in /  0.51 mm
22:26 40.2 °F /  4.6 °C 39.7 °F /  4.3 °C 29.90 in /  1012.4 hPa NNE 1.1 mph /  1.8 km/h 1.1 mph /  1.8 km/h 98 % 0.01 in /  0.25 mm
22:31 40.2 °F /  4.6 °C 39.7 °F /  4.3 °C 29.90 in /  1012.4 hPa NNE 0.5 mph /  0.8 km/h 2.3 mph /  3.7 km/h 98 % 0.00 in /  0 mm
22:36 40.2 °F /  4.6 °C 39.7 °F /  4.3 °C 29.90 in /  1012.4 hPa NNE 0.3 mph /  0.5 km/h 1.2 mph /  1.9 km/h 98 % 0.00 in /  0 mm
22:41 40.1 °F /  4.5 °C 39.6 °F /  4.2 °C 29.90 in /  1012.4 hPa Calm   1.2 mph /  1.9 km/h 98 % 0.00 in /  0 mm
22:46 40.1 °F /  4.5 °C 39.6 °F /  4.2 °C 29.90 in /  1012.4 hPa ENE 1.9 mph /  3.1 km/h 3.5 mph /  5.6 km/h 98 % 0.00 in /  0 mm
22:51 40.0 °F /  4.4 °C 39.5 °F /  4.2 °C 29.90 in /  1012.4 hPa NE 0.8 mph /  1.3 km/h 2.3 mph /  3.7 km/h 98 % 0.00 in /  0 mm
22:57 40.0 °F /  4.4 °C 39.5 °F /  4.2 °C 29.90 in /  1012.4 hPa ENE 2.8 mph /  4.5 km/h 4.6 mph /  7.4 km/h 98 % 0.00 in /  0 mm
23:02 39.9 °F /  4.4 °C 39.4 °F /  4.1 °C 29.90 in /  1012.4 hPa ENE 1.4 mph /  2.3 km/h 3.5 mph /  5.6 km/h 98 % 0.00 in /  0 mm
23:07 39.9 °F /  4.4 °C 39.4 °F /  4.1 °C 29.90 in /  1012.4 hPa ENE 0.1 mph /  0.2 km/h 2.3 mph /  3.7 km/h 98 % 0.00 in /  0 mm
23:12 39.9 °F /  4.4 °C 39.4 °F /  4.1 °C 29.90 in /  1012.4 hPa NE 0.6 mph /  1 km/h 1.2 mph /  1.9 km/h 98 % 0.00 in /  0 mm
23:17 39.9 °F /  4.4 °C 39.4 °F /  4.1 °C 29.90 in /  1012.4 hPa NE 0.1 mph /  0.2 km/h 1.2 mph /  1.9 km/h 98 % 0.00 in /  0 mm
23:22 39.9 °F /  4.4 °C 39.4 °F /  4.1 °C 29.90 in /  1012.4 hPa Calm   1.2 mph /  1.9 km/h 98 % 0.00 in /  0 mm
23:27 39.9 °F /  4.4 °C 39.4 °F /  4.1 °C 29.90 in /  1012.4 hPa NE 0.1 mph /  0.2 km/h 1.2 mph /  1.9 km/h 98 % 0.00 in /  0 mm
23:32 39.9 °F /  4.4 °C 39.4 °F /  4.1 °C 29.90 in /  1012.4 hPa Calm     98 % 0.00 in /  0 mm
23:37 39.9 °F /  4.4 °C 39.4 °F /  4.1 °C 29.90 in /  1012.4 hPa Calm     98 % 0.00 in /  0 mm
23:42 39.9 °F /  4.4 °C 39.4 °F /  4.1 °C 29.89 in /  1012.1 hPa NE 0.3 mph /  0.5 km/h 1.2 mph /  1.9 km/h 98 % 0.00 in /  0 mm
23:47 39.9 °F /  4.4 °C 39.4 °F /  4.1 °C 29.89 in /  1012.1 hPa NE 0.4 mph /  0.6 km/h 2.3 mph /  3.7 km/h 98 % 0.00 in /  0 mm
23:52 39.9 °F /  4.4 °C 39.4 °F /  4.1 °C 29.89 in /  1012.1 hPa NE 0.1 mph /  0.2 km/h 1.2 mph /  1.9 km/h 98 % 0.00 in /  0 mm
23:57 39.9 °F /  4.4 °C 39.4 °F /  4.1 °C 29.90 in /  1012.4 hPa NE 0.1 mph /  0.2 km/h 1.2 mph /  1.9 km/h 98 % 0.00 in /  0 mm
Crab Meadow Weather
Compliments of Weather Underground - 3 mb

Script developed by  Jim McMurry - jmcmurry@mwt.net Adapted for the template by  Wim van der Kuil - Leuven-Template.eu

Weather Terms: Degree Day - Gauges the amount of heating or cooling needed for a building using 65 degrees as a baseline. To compute degree days, the average temperature for a day is taken and referenced to 65. An average temperature of 50 yields 15 heating degree days, while an average temperature of 75 would yield 10 cooling degree days.